createdAt,value
2019-04-29T00:01:33.583Z,100.00
2019-04-29T00:04:02.806Z,100.00
2019-04-29T00:06:32.040Z,100.00
2019-04-29T00:09:01.228Z,100.00
2019-04-29T00:11:30.688Z,100.00
2019-04-29T00:13:59.891Z,100.00
2019-04-29T00:16:41.052Z,100.00
2019-04-29T00:19:28.590Z,100.00
2019-04-29T00:21:58.636Z,100.00
2019-04-29T00:24:27.903Z,100.00
2019-04-29T00:26:57.048Z,100.00
2019-04-29T00:29:26.264Z,100.00
2019-04-29T00:31:55.551Z,100.00
2019-04-29T00:34:26.372Z,100.00
2019-04-29T00:37:09.419Z,100.00
2019-04-29T00:39:56.208Z,100.00
2019-04-29T00:42:43.070Z,100.00
2019-04-29T00:45:12.673Z,100.00
2019-04-29T00:47:41.817Z,100.00
2019-04-29T00:50:11.251Z,100.00
2019-04-29T00:52:40.381Z,100.00
2019-04-29T00:55:12.868Z,100.00
2019-04-29T00:57:42.150Z,100.00
2019-04-29T01:00:13.996Z,100.00
2019-04-29T01:02:43.149Z,100.00
2019-04-29T01:05:12.320Z,100.00
2019-04-29T01:07:41.462Z,100.00
2019-04-29T01:10:11.377Z,100.00
2019-04-29T01:12:40.525Z,100.00
2019-04-29T01:15:10.073Z,100.00
2019-04-29T01:17:39.290Z,100.00
2019-04-29T01:20:08.799Z,100.00
2019-04-29T01:22:37.940Z,100.00
2019-04-29T01:25:07.707Z,100.00
2019-04-29T01:27:42.845Z,100.00
2019-04-29T01:30:33.056Z,100.00
2019-04-29T01:33:02.526Z,100.00
2019-04-29T01:35:31.883Z,100.00
2019-04-29T01:38:01.081Z,100.00
2019-04-29T01:40:49.749Z,100.00
2019-04-29T01:43:19.106Z,100.00
2019-04-29T01:45:48.422Z,100.00
2019-04-29T01:48:17.589Z,100.00
2019-04-29T01:50:46.759Z,100.00
2019-04-29T01:53:15.907Z,100.00
2019-04-29T01:55:45.096Z,100.00
2019-04-29T01:58:14.505Z,100.00
2019-04-29T02:00:43.679Z,100.00
2019-04-29T02:03:12.844Z,100.00
2019-04-29T02:05:42.004Z,100.00
2019-04-29T02:08:11.161Z,100.00
2019-04-29T02:10:40.485Z,100.00
2019-04-29T02:13:09.646Z,100.00
2019-04-29T02:15:38.948Z,100.00
2019-04-29T02:18:08.122Z,100.00
2019-04-29T02:20:37.446Z,100.00
2019-04-29T02:23:34.811Z,100.00
2019-04-29T02:26:04.081Z,100.00
2019-04-29T02:28:33.285Z,100.00
2019-04-29T02:31:21.399Z,100.00
2019-04-29T02:33:50.540Z,100.00
2019-04-29T02:36:19.749Z,100.00
2019-04-29T02:39:07.880Z,100.00
2019-04-29T02:42:14.864Z,100.00
2019-04-29T02:44:44.018Z,100.00
2019-04-29T02:47:13.159Z,100.00
2019-04-29T02:49:42.342Z,100.00
2019-04-29T02:52:11.481Z,100.00
2019-04-29T02:54:40.778Z,100.00
2019-04-29T02:57:38.353Z,100.00
2019-04-29T03:00:39.347Z,100.00
2019-04-29T03:03:15.130Z,100.00
2019-04-29T03:05:50.397Z,100.00
2019-04-29T03:08:19.740Z,100.00
2019-04-29T03:10:49.071Z,100.00
2019-04-29T03:13:18.431Z,100.00
2019-04-29T03:15:47.568Z,100.00
2019-04-29T03:18:17.656Z,100.00
2019-04-29T03:20:55.386Z,100.00
2019-04-29T03:23:24.884Z,100.00
2019-04-29T03:25:54.174Z,100.00
2019-04-29T03:28:23.449Z,100.00
2019-04-29T03:30:52.634Z,100.00
2019-04-29T03:33:21.829Z,100.00
2019-04-29T03:35:51.026Z,100.00
2019-04-29T03:38:20.207Z,100.00
2019-04-29T03:40:49.519Z,100.00
2019-04-29T03:43:19.906Z,100.00
2019-04-29T03:45:49.076Z,100.00
2019-04-29T03:48:18.210Z,100.00
2019-04-29T03:50:47.388Z,100.00
2019-04-29T03:53:16.513Z,100.00
2019-04-29T03:55:45.729Z,100.00
2019-04-29T03:58:14.973Z,100.00
2019-04-29T04:00:45.822Z,100.00
2019-04-29T04:03:33.922Z,100.00
2019-04-29T04:06:12.676Z,100.00
2019-04-29T04:08:44.655Z,100.00
2019-04-29T04:11:13.867Z,100.00
2019-04-29T04:13:43.004Z,100.00
2019-04-29T04:16:17.258Z,100.00
2019-04-29T04:18:46.656Z,100.00
2019-04-29T04:21:16.203Z,100.00
2019-04-29T04:23:45.355Z,100.00
2019-04-29T04:26:14.507Z,100.00
2019-04-29T04:28:43.653Z,100.00
2019-04-29T04:31:12.850Z,100.00
2019-04-29T04:33:42.068Z,100.00
2019-04-29T04:36:11.237Z,100.00
2019-04-29T04:38:40.593Z,100.00
2019-04-29T04:41:11.028Z,100.00
2019-04-29T04:43:40.175Z,100.00
2019-04-29T04:46:09.366Z,100.00
2019-04-29T04:48:38.493Z,100.00
2019-04-29T04:51:07.672Z,100.00
2019-04-29T04:53:36.866Z,100.00
2019-04-29T04:56:06.136Z,100.00
2019-04-29T04:58:35.277Z,100.00
2019-04-29T05:01:04.913Z,100.00
2019-04-29T05:03:34.047Z,100.00
2019-04-29T05:06:03.254Z,100.00
2019-04-29T05:08:32.392Z,100.00
2019-04-29T05:11:01.541Z,100.00
2019-04-29T05:13:30.689Z,100.00
2019-04-29T05:15:59.899Z,100.00
2019-04-29T05:18:29.049Z,100.00
2019-04-29T05:20:58.224Z,100.00
2019-04-29T05:23:27.449Z,100.00
2019-04-29T05:25:56.808Z,100.00
2019-04-29T05:28:25.960Z,100.00
2019-04-29T05:30:55.106Z,100.00
2019-04-29T05:33:24.444Z,100.00
2019-04-29T05:36:15.664Z,100.00
2019-04-29T05:38:52.004Z,100.00
2019-04-29T05:41:23.119Z,100.00
2019-04-29T05:44:10.994Z,100.00
2019-04-29T05:46:49.897Z,100.00
2019-04-29T05:49:23.937Z,100.00
2019-04-29T05:52:01.984Z,100.00
2019-04-29T05:54:31.755Z,100.00
2019-04-29T05:57:00.564Z,100.00
2019-04-29T05:59:31.868Z,100.00
2019-04-29T06:02:01.027Z,100.00
2019-04-29T06:04:30.186Z,100.00
2019-04-29T06:06:59.372Z,100.00
2019-04-29T06:09:28.569Z,99.32
2019-04-29T06:11:58.978Z,98.20
2019-04-29T06:14:28.171Z,98.60
2019-04-29T06:17:02.198Z,98.07
2019-04-29T06:19:28.309Z,97.75
2019-04-29T06:21:57.471Z,97.42
2019-04-29T06:24:28.092Z,97.10
2019-04-29T06:26:57.243Z,96.19
2019-04-29T06:29:26.403Z,93.84
2019-04-29T06:31:55.552Z,94.43
2019-04-29T06:34:24.756Z,93.75
2019-04-29T06:36:53.903Z,92.91
2019-04-29T06:39:23.076Z,93.19
2019-04-29T06:41:52.261Z,92.70
2019-04-29T06:44:21.606Z,91.96
2019-04-29T06:46:54.562Z,92.22
2019-04-29T06:49:21.621Z,91.20
2019-04-29T06:51:51.064Z,92.26
2019-04-29T06:54:20.365Z,91.36
2019-04-29T06:56:49.576Z,90.57
2019-04-29T06:59:18.827Z,91.38
2019-04-29T07:01:48.013Z,91.05
2019-04-29T07:04:17.271Z,91.97
2019-04-29T07:06:57.278Z,91.08
2019-04-29T07:09:17.716Z,91.26
2019-04-29T07:11:46.991Z,88.24
2019-04-29T07:14:16.218Z,87.73
2019-04-29T07:16:45.453Z,87.99
2019-04-29T07:19:14.709Z,86.57
2019-04-29T07:21:46.900Z,88.37
2019-04-29T07:24:14.956Z,88.98
2019-04-29T07:26:44.168Z,88.08
2019-04-29T07:29:13.847Z,88.82
2019-04-29T07:31:43.103Z,87.15
2019-04-29T07:34:12.429Z,87.57
2019-04-29T07:36:41.594Z,88.56
2019-04-29T07:39:11.752Z,87.71
2019-04-29T07:41:41.546Z,87.16
2019-04-29T07:44:13.736Z,86.55
2019-04-29T07:47:00.249Z,86.87
2019-04-29T07:49:29.508Z,86.18
2019-04-29T07:52:02.366Z,87.07
2019-04-29T07:54:32.877Z,85.07
2019-04-29T07:57:02.099Z,85.40
2019-04-29T07:59:33.745Z,84.48
2019-04-29T08:02:03.499Z,84.89
2019-04-29T08:04:32.832Z,84.37
2019-04-29T08:07:02.314Z,83.83
2019-04-29T08:09:31.646Z,83.78
2019-04-29T08:12:02.049Z,84.67
2019-04-29T08:14:33.557Z,83.08
2019-04-29T08:17:03.677Z,85.38
2019-04-29T08:19:33.038Z,84.70
2019-04-29T08:22:02.204Z,82.74
2019-04-29T08:24:31.493Z,80.92
2019-04-29T08:27:00.704Z,79.24
2019-04-29T08:29:35.711Z,81.39
2019-04-29T08:32:02.637Z,78.53
2019-04-29T08:34:31.997Z,78.91
2019-04-29T08:37:01.564Z,80.20
2019-04-29T08:39:32.725Z,77.60
2019-04-29T08:42:09.152Z,78.17
2019-04-29T08:45:01.546Z,77.17
2019-04-29T08:47:32.798Z,77.13
2019-04-29T08:50:03.589Z,75.93
2019-04-29T08:52:34.212Z,75.35
2019-04-29T08:55:03.593Z,75.25
2019-04-29T08:57:36.488Z,74.99
2019-04-29T09:00:07.136Z,74.18
2019-04-29T09:02:36.366Z,74.79
2019-04-29T09:05:11.509Z,74.87
2019-04-29T09:07:38.808Z,75.44
2019-04-29T09:10:10.359Z,73.76
2019-04-29T09:12:39.529Z,73.65
2019-04-29T09:15:10.639Z,73.64
2019-04-29T09:17:40.037Z,72.60
2019-04-29T09:20:09.898Z,72.64
2019-04-29T09:22:42.881Z,72.69
2019-04-29T09:25:34.315Z,72.33
2019-04-29T09:28:08.492Z,72.84
2019-04-29T09:30:38.742Z,71.40
2019-04-29T09:33:12.812Z,71.40
2019-04-29T09:35:41.682Z,70.36
2019-04-29T09:38:10.867Z,69.09
2019-04-29T09:40:45.826Z,69.98
2019-04-29T09:43:27.117Z,68.93
2019-04-29T09:46:09.286Z,67.78
2019-04-29T09:48:38.465Z,67.25
2019-04-29T09:51:17.197Z,68.98
2019-04-29T09:53:38.753Z,67.22
2019-04-29T09:56:08.113Z,65.74
2019-04-29T09:58:38.825Z,65.47
2019-04-29T10:01:29.364Z,66.87
2019-04-29T10:04:08.349Z,68.55
2019-04-29T10:06:39.728Z,66.17
2019-04-29T10:09:11.210Z,66.64
2019-04-29T10:11:40.954Z,65.11
2019-04-29T10:14:10.124Z,63.68
2019-04-29T10:16:56.986Z,63.68
2019-04-29T10:19:39.833Z,63.53
2019-04-29T10:22:09.522Z,62.56
2019-04-29T10:24:38.861Z,64.18
2019-04-29T10:27:08.396Z,62.61
2019-04-29T10:29:41.833Z,65.21
2019-04-29T10:32:13.223Z,64.86
2019-04-29T10:34:43.223Z,63.17
2019-04-29T10:37:12.722Z,63.62
2019-04-29T10:40:10.546Z,63.45
2019-04-29T10:42:39.437Z,63.21
2019-04-29T10:45:28.280Z,63.03
2019-04-29T10:48:25.674Z,62.88
2019-04-29T10:50:57.001Z,62.44
2019-04-29T10:53:28.803Z,61.20
2019-04-29T10:56:01.053Z,59.52
2019-04-29T10:58:35.073Z,61.91
2019-04-29T11:02:13.387Z,60.88
2019-04-29T11:04:38.140Z,60.63
2019-04-29T11:07:26.583Z,61.52
2019-04-29T11:09:59.671Z,62.32
2019-04-29T11:12:29.191Z,60.61
2019-04-29T11:15:01.383Z,60.22
2019-04-29T11:17:29.514Z,59.88
2019-04-29T11:19:58.814Z,58.57
2019-04-29T11:22:33.975Z,61.05
2019-04-29T11:25:24.787Z,58.23
2019-04-29T11:27:56.266Z,57.30
2019-04-29T11:30:27.132Z,58.97
2019-04-29T11:33:10.041Z,57.62
2019-04-29T11:35:48.341Z,60.27
2019-04-29T11:38:18.667Z,59.02
2019-04-29T11:40:49.992Z,55.20
2019-04-29T11:43:19.734Z,54.39
2019-04-29T11:45:49.542Z,54.86
2019-04-29T11:48:18.746Z,56.25
2019-04-29T11:50:59.294Z,56.85
2019-04-29T11:53:28.700Z,57.46
2019-04-29T11:55:58.759Z,56.65
2019-04-29T11:58:40.726Z,57.67
2019-04-29T12:01:38.597Z,58.98
2019-04-29T12:04:01.893Z,53.37
2019-04-29T12:06:31.107Z,55.24
2019-04-29T12:09:00.666Z,55.52
2019-04-29T12:11:35.773Z,55.11
2019-04-29T12:14:28.847Z,53.75
2019-04-29T12:17:15.073Z,56.04
2019-04-29T12:19:44.397Z,56.13
2019-04-29T12:22:26.952Z,52.86
2019-04-29T12:24:44.435Z,52.27
2019-04-29T12:27:14.719Z,52.15
2019-04-29T12:29:48.962Z,51.77
2019-04-29T12:32:37.802Z,53.94
2019-04-29T12:35:35.393Z,55.58
2019-04-29T12:38:22.455Z,52.38
2019-04-29T12:41:21.101Z,53.48
2019-04-29T12:43:59.210Z,54.12
2019-04-29T12:46:29.546Z,51.54
2019-04-29T12:48:58.819Z,50.85
2019-04-29T12:51:27.982Z,50.02
2019-04-29T12:53:57.167Z,49.78
2019-04-29T12:56:34.745Z,48.63
2019-04-29T12:59:04.648Z,48.09
2019-04-29T13:01:59.519Z,47.19
2019-04-29T13:04:49.787Z,45.81
2019-04-29T13:07:33.417Z,47.51
2019-04-29T13:10:09.402Z,47.51
2019-04-29T13:12:39.875Z,47.34
2019-04-29T13:15:22.279Z,46.56
2019-04-29T13:18:03.759Z,48.55
2019-04-29T13:20:28.703Z,48.93
2019-04-29T13:23:01.067Z,50.13
2019-04-29T13:25:29.908Z,47.82
2019-04-29T13:28:03.950Z,47.72
2019-04-29T13:30:30.365Z,46.69
2019-04-29T13:33:01.223Z,47.11
2019-04-29T13:35:32.294Z,50.53
2019-04-29T13:38:01.922Z,49.88
2019-04-29T13:40:32.958Z,48.41
2019-04-29T13:43:03.380Z,47.35
2019-04-29T13:45:40.085Z,46.24
2019-04-29T13:48:54.025Z,47.81
2019-04-29T13:51:12.789Z,47.42
2019-04-29T13:53:42.096Z,48.88
2019-04-29T13:56:28.521Z,48.21
2019-04-29T13:58:42.498Z,49.27
2019-04-29T14:01:39.696Z,51.06
2019-04-29T14:04:24.912Z,48.49
2019-04-29T14:06:57.245Z,48.85
2019-04-29T14:09:26.108Z,47.67
2019-04-29T14:12:04.299Z,50.63
2019-04-29T14:14:29.545Z,51.47
2019-04-29T14:17:11.870Z,52.79
2019-04-29T14:19:45.301Z,52.40
2019-04-29T14:22:01.453Z,51.66
2019-04-29T14:24:32.401Z,53.27
2019-04-29T14:27:02.674Z,52.55
2019-04-29T14:29:33.167Z,50.97
2019-04-29T14:32:02.340Z,52.54
2019-04-29T14:34:44.598Z,52.88
2019-04-29T14:37:24.932Z,52.18
2019-04-29T14:39:45.051Z,51.89
2019-04-29T14:42:34.881Z,51.44
2019-04-29T14:45:29.952Z,50.30
2019-04-29T14:48:20.468Z,51.05
2019-04-29T14:50:54.090Z,50.84
2019-04-29T14:53:24.129Z,49.70
2019-04-29T14:55:51.592Z,49.52
2019-04-29T14:58:20.902Z,48.07
2019-04-29T15:01:04.946Z,48.81
2019-04-29T15:03:51.793Z,46.39
2019-04-29T15:06:20.933Z,45.60
2019-04-29T15:08:50.158Z,46.46
2019-04-29T15:11:31.395Z,46.13
2019-04-29T15:13:56.643Z,46.75
2019-04-29T15:16:34.758Z,46.45
2019-04-29T15:19:13.067Z,45.83
2019-04-29T15:21:46.935Z,45.96
2019-04-29T15:24:17.781Z,44.92
2019-04-29T15:26:47.783Z,46.81
2019-04-29T15:29:17.119Z,45.83
2019-04-29T15:31:47.013Z,46.38
2019-04-29T15:34:17.115Z,47.26
2019-04-29T15:36:46.440Z,47.87
2019-04-29T15:39:15.977Z,48.00
2019-04-29T15:41:45.607Z,48.74
2019-04-29T15:44:20.310Z,48.90
2019-04-29T15:46:47.094Z,49.53
2019-04-29T15:49:20.031Z,49.93
2019-04-29T15:51:49.295Z,49.45
2019-04-29T15:54:18.591Z,50.19
2019-04-29T15:56:47.976Z,50.07
2019-04-29T15:59:17.627Z,50.46
2019-04-29T16:01:46.837Z,50.78
2019-04-29T16:04:23.053Z,51.93
2019-04-29T16:07:17.045Z,51.51
2019-04-29T16:10:14.501Z,51.84
2019-04-29T16:12:50.945Z,52.83
2019-04-29T16:15:18.842Z,54.65
2019-04-29T16:17:48.304Z,58.22
2019-04-29T16:20:17.514Z,59.18
2019-04-29T16:22:46.758Z,62.04
2019-04-29T16:25:15.960Z,64.17
2019-04-29T16:27:48.863Z,64.96
2019-04-29T16:30:19.022Z,66.08
2019-04-29T16:32:48.309Z,67.37
2019-04-29T16:35:23.769Z,69.57
2019-04-29T16:37:51.132Z,70.50
2019-04-29T16:40:20.668Z,71.16
2019-04-29T16:43:05.757Z,70.49
2019-04-29T16:46:09.347Z,74.13
2019-04-29T16:48:38.502Z,73.33
2019-04-29T16:51:13.940Z,72.47
2019-04-29T16:53:38.758Z,75.76
2019-04-29T16:56:15.646Z,74.29
2019-04-29T16:58:39.083Z,74.98
2019-04-29T17:01:08.250Z,76.00
2019-04-29T17:03:37.440Z,76.71
2019-04-29T17:06:06.656Z,76.97
2019-04-29T17:09:05.018Z,78.10
2019-04-29T17:11:33.303Z,78.63
2019-04-29T17:14:03.250Z,80.32
2019-04-29T17:16:33.851Z,81.45
2019-04-29T17:19:03.051Z,80.55
2019-04-29T17:21:32.609Z,79.40
2019-04-29T17:24:01.772Z,80.10
2019-04-29T17:26:39.012Z,80.99
2019-04-29T17:29:39.083Z,80.47
2019-04-29T17:32:44.386Z,79.23
2019-04-29T17:35:10.522Z,79.31
2019-04-29T17:37:39.912Z,78.63
2019-04-29T17:40:10.720Z,80.72
2019-04-29T17:42:41.909Z,82.36
2019-04-29T17:45:21.459Z,83.25
2019-04-29T17:47:53.092Z,85.34
2019-04-29T17:50:46.214Z,87.11
2019-04-29T17:53:40.803Z,88.36
2019-04-29T17:56:18.394Z,90.29
2019-04-29T17:58:58.112Z,91.21
2019-04-29T18:01:43.454Z,92.61
2019-04-29T18:04:37.630Z,93.99
2019-04-29T18:07:21.758Z,97.08
2019-04-29T18:09:58.448Z,97.61
2019-04-29T18:12:27.962Z,99.58
2019-04-29T18:14:57.149Z,100.00
2019-04-29T18:17:31.030Z,100.00
2019-04-29T18:20:32.240Z,100.00
2019-04-29T18:23:11.079Z,100.00
2019-04-29T18:25:47.558Z,100.00
2019-04-29T18:28:16.934Z,100.00
2019-04-29T18:30:49.842Z,100.00
2019-04-29T18:33:18.955Z,100.00
2019-04-29T18:35:49.754Z,100.00
2019-04-29T18:38:19.747Z,100.00
2019-04-29T18:40:49.536Z,100.00
2019-04-29T18:43:23.109Z,100.00
2019-04-29T18:45:56.116Z,100.00
2019-04-29T18:48:22.458Z,100.00
2019-04-29T18:50:51.700Z,100.00
2019-04-29T18:53:20.896Z,100.00
2019-04-29T18:55:52.758Z,100.00
2019-04-29T18:58:24.939Z,100.00
2019-04-29T19:00:56.381Z,100.00
2019-04-29T19:03:49.961Z,100.00
2019-04-29T19:06:20.424Z,100.00
2019-04-29T19:08:50.196Z,100.00
2019-04-29T19:11:29.928Z,100.00
2019-04-29T19:13:52.088Z,100.00
2019-04-29T19:16:23.286Z,100.00
2019-04-29T19:19:00.187Z,100.00
2019-04-29T19:21:30.401Z,100.00
2019-04-29T19:23:57.381Z,100.00
2019-04-29T19:26:27.631Z,100.00
2019-04-29T19:28:56.897Z,100.00
2019-04-29T19:31:26.161Z,100.00
2019-04-29T19:33:57.211Z,100.00
2019-04-29T19:36:27.549Z,100.00
2019-04-29T19:39:01.384Z,100.00
2019-04-29T19:41:30.632Z,100.00
2019-04-29T19:44:00.075Z,100.00
2019-04-29T19:46:36.818Z,100.00
2019-04-29T19:49:07.416Z,100.00
2019-04-29T19:51:31.397Z,100.00
2019-04-29T19:54:00.545Z,100.00
2019-04-29T19:56:29.886Z,100.00
2019-04-29T19:59:08.432Z,100.00
2019-04-29T20:01:32.105Z,100.00
2019-04-29T20:04:35.738Z,100.00
2019-04-29T20:07:09.001Z,100.00
2019-04-29T20:09:38.322Z,100.00
2019-04-29T20:12:12.605Z,100.00
2019-04-29T20:14:38.884Z,100.00
2019-04-29T20:17:47.107Z,100.00
2019-04-29T20:20:29.693Z,100.00
2019-04-29T20:22:58.780Z,100.00
2019-04-29T20:25:30.848Z,100.00
2019-04-29T20:28:05.719Z,100.00
2019-04-29T20:30:30.263Z,100.00
2019-04-29T20:33:01.174Z,100.00
2019-04-29T20:35:30.692Z,100.00
2019-04-29T20:38:00.434Z,100.00
2019-04-29T20:40:35.320Z,100.00
2019-04-29T20:43:01.227Z,100.00
2019-04-29T20:45:30.738Z,100.00
2019-04-29T20:48:00.100Z,100.00
2019-04-29T20:50:29.650Z,100.00
2019-04-29T20:53:05.819Z,100.00
2019-04-29T20:55:36.577Z,100.00
2019-04-29T20:58:06.752Z,100.00
2019-04-29T21:00:38.521Z,100.00
2019-04-29T21:03:09.596Z,100.00
2019-04-29T21:05:47.580Z,100.00
2019-04-29T21:08:16.373Z,100.00
2019-04-29T21:10:43.047Z,100.00
2019-04-29T21:13:20.547Z,100.00
2019-04-29T21:15:59.522Z,100.00
2019-04-29T21:18:29.429Z,100.00
2019-04-29T21:21:03.583Z,100.00
2019-04-29T21:23:35.312Z,100.00
2019-04-29T21:26:05.410Z,100.00
2019-04-29T21:28:38.141Z,100.00
2019-04-29T21:31:05.234Z,100.00
2019-04-29T21:33:36.336Z,100.00
2019-04-29T21:36:16.392Z,100.00
2019-04-29T21:39:01.943Z,100.00
2019-04-29T21:41:39.169Z,100.00
2019-04-29T21:44:08.466Z,100.00
2019-04-29T21:46:37.931Z,100.00
2019-04-29T21:49:11.737Z,100.00
2019-04-29T21:51:41.803Z,100.00
2019-04-29T21:54:14.202Z,100.00
2019-04-29T21:56:46.517Z,100.00
2019-04-29T22:02:41.415Z,100.00
2019-04-29T22:05:14.742Z,100.00
2019-04-29T22:07:46.279Z,100.00
2019-04-29T22:10:15.228Z,100.00
2019-04-29T22:12:46.239Z,100.00
2019-04-29T22:15:29.259Z,100.00
2019-04-29T22:17:56.440Z,100.00
2019-04-29T22:20:22.244Z,100.00
2019-04-29T22:22:51.412Z,100.00
2019-04-29T22:25:20.606Z,100.00
2019-04-29T22:27:51.072Z,100.00
2019-04-29T22:30:21.403Z,100.00
2019-04-29T22:32:51.701Z,100.00
2019-04-29T22:35:21.997Z,100.00
2019-04-29T22:37:51.211Z,100.00
2019-04-29T22:40:20.372Z,100.00
2019-04-29T22:43:04.659Z,100.00
2019-04-29T22:45:29.547Z,100.00
2019-04-29T22:48:12.081Z,100.00
2019-04-29T22:50:33.708Z,100.00
2019-04-29T22:53:07.383Z,100.00
2019-04-29T22:55:37.126Z,100.00
2019-04-29T22:58:08.219Z,100.00
2019-04-29T23:00:36.284Z,100.00
2019-04-29T23:03:07.955Z,100.00
2019-04-29T23:05:37.835Z,100.00
2019-04-29T23:08:09.355Z,100.00
2019-04-29T23:10:38.757Z,100.00
2019-04-29T23:13:08.100Z,100.00
2019-04-29T23:15:38.030Z,100.00
2019-04-29T23:18:09.860Z,100.00
2019-04-29T23:20:59.560Z,100.00
2019-04-29T23:23:38.095Z,100.00
2019-04-29T23:26:05.523Z,100.00
2019-04-29T23:28:36.007Z,100.00
2019-04-29T23:31:06.994Z,100.00
2019-04-29T23:33:38.032Z,100.00
2019-04-29T23:36:09.571Z,100.00
2019-04-29T23:38:42.838Z,100.00
2019-04-29T23:41:12.136Z,100.00
2019-04-29T23:43:42.367Z,100.00
2019-04-29T23:46:13.081Z,100.00
2019-04-29T23:48:42.260Z,100.00
2019-04-29T23:51:11.408Z,100.00
2019-04-29T23:53:41.516Z,100.00
2019-04-29T23:56:10.754Z,100.00
2019-04-29T23:58:55.395Z,100.00
